createdAt,value
2023-01-17T00:00:54.128Z,1.65
2023-01-17T00:03:33.481Z,2.10
2023-01-17T00:06:51.677Z,2.00
2023-01-17T00:10:23.243Z,1.52
2023-01-17T00:13:21.529Z,2.92
2023-01-17T00:20:02.795Z,1.55
2023-01-17T00:27:04.815Z,1.27
2023-01-17T00:33:37.250Z,2.90
2023-01-17T00:36:35.972Z,2.10
2023-01-17T00:39:22.487Z,3.00
2023-01-17T00:46:05.936Z,1.35
2023-01-17T00:49:27.042Z,1.20
2023-01-17T00:52:29.308Z,1.10
2023-01-17T00:55:41.090Z,0.98
2023-01-17T00:58:35.799Z,0.60
2023-01-17T01:01:40.520Z,0.60
2023-01-17T01:04:58.975Z,0.70
2023-01-17T01:07:59.946Z,0.90
2023-01-17T01:10:57.030Z,0.60
2023-01-17T01:16:53.005Z,1.65
2023-01-17T01:20:00.191Z,3.30
2023-01-17T01:22:48.119Z,3.17
2023-01-17T01:26:01.388Z,2.45
2023-01-17T01:29:00.262Z,6.78
2023-01-17T01:32:00.890Z,2.05
2023-01-17T01:35:05.298Z,2.30
2023-01-17T01:37:42.033Z,3.97
2023-01-17T01:40:14.657Z,1.27
2023-01-17T01:43:06.258Z,1.40
2023-01-17T01:45:33.899Z,2.40
2023-01-17T01:48:21.788Z,2.88
2023-01-17T01:50:52.899Z,4.05
2023-01-17T01:53:23.188Z,3.35
2023-01-17T01:55:53.426Z,2.22
2023-01-17T01:58:29.261Z,4.18
2023-01-17T02:00:57.515Z,2.13
2023-01-17T02:03:30.629Z,1.25
2023-01-17T02:06:28.672Z,1.30
2023-01-17T02:09:04.344Z,1.13
2023-01-17T02:11:39.901Z,1.10
2023-01-17T02:14:09.066Z,1.58
2023-01-17T02:17:27.625Z,0.50
2023-01-17T02:20:56.451Z,0.57
2023-01-17T02:24:03.287Z,0.60
2023-01-17T02:31:06.599Z,0.60
2023-01-17T02:34:22.080Z,0.60
2023-01-17T02:42:16.322Z,0.80
2023-01-17T02:46:01.421Z,2.25
2023-01-17T02:48:41.127Z,0.65
2023-01-17T02:51:30.072Z,0.80
2023-01-17T02:54:27.974Z,0.93
2023-01-17T02:57:29.916Z,1.13
2023-01-17T03:00:36.014Z,1.95
2023-01-17T03:03:35.654Z,1.20
2023-01-17T03:06:16.668Z,0.90
2023-01-17T03:08:50.002Z,0.75
2023-01-17T03:11:28.566Z,0.75
2023-01-17T03:14:10.777Z,1.13
2023-01-17T03:16:42.080Z,1.60
2023-01-17T03:33:20.951Z,0.82
2023-01-17T03:36:09.987Z,1.17
2023-01-17T03:39:04.299Z,0.80
2023-01-17T03:41:57.883Z,1.45
2023-01-17T03:44:48.033Z,0.80
2023-01-17T03:47:53.615Z,3.05
2023-01-17T03:51:04.034Z,2.17
2023-01-17T03:57:11.838Z,3.80
2023-01-17T04:00:03.721Z,1.73
2023-01-17T04:02:47.210Z,4.78
2023-01-17T04:05:59.286Z,2.78
2023-01-17T04:09:15.012Z,2.63
2023-01-17T04:11:54.552Z,2.42
2023-01-17T04:14:33.734Z,2.45
2023-01-17T04:17:53.280Z,3.72
2023-01-17T04:21:05.752Z,2.67
2023-01-17T06:50:04.352Z,10.48
2023-01-17T06:52:31.358Z,14.50
2023-01-17T06:54:58.322Z,10.77
2023-01-17T06:57:25.397Z,8.18
2023-01-17T06:59:52.453Z,9.70
2023-01-17T07:02:19.542Z,8.95
2023-01-17T07:04:46.321Z,10.77
2023-01-17T07:07:13.361Z,11.93
2023-01-17T07:09:40.270Z,11.65
2023-01-17T07:12:07.726Z,13.23
2023-01-17T07:14:34.632Z,15.40
2023-01-17T07:17:01.503Z,11.27
2023-01-17T07:19:28.365Z,11.80
2023-01-17T07:21:55.959Z,14.38
2023-01-17T07:24:24.514Z,13.38
2023-01-17T07:26:52.191Z,15.95
2023-01-17T07:29:19.539Z,19.08
2023-01-17T07:31:59.110Z,20.02
2023-01-17T07:34:25.992Z,19.80
2023-01-17T07:36:57.493Z,19.13
2023-01-17T07:39:26.860Z,19.70
2023-01-17T07:41:54.682Z,22.23
2023-01-17T07:44:21.479Z,23.45
2023-01-17T07:46:48.384Z,19.77
2023-01-17T07:49:15.209Z,22.52
2023-01-17T07:51:42.214Z,19.13
2023-01-17T07:54:14.586Z,22.95
2023-01-17T07:56:47.758Z,21.30
2023-01-17T07:59:18.649Z,18.10
2023-01-17T08:01:49.347Z,20.48
2023-01-17T08:04:18.267Z,22.75
2023-01-17T08:06:48.876Z,21.65
2023-01-17T08:09:17.998Z,18.63
2023-01-17T08:11:48.218Z,19.55
2023-01-17T08:14:16.682Z,23.05
2023-01-17T08:16:45.496Z,20.50
2023-01-17T08:19:18.801Z,26.60
2023-01-17T08:21:56.309Z,20.70
2023-01-17T08:24:26.985Z,18.65
2023-01-17T08:27:01.064Z,18.13
2023-01-17T08:29:31.141Z,14.70
2023-01-17T08:32:00.061Z,15.43
2023-01-17T08:34:28.671Z,17.63
2023-01-17T08:36:57.782Z,16.50
2023-01-17T08:39:29.271Z,17.20
2023-01-17T08:42:03.632Z,16.35
2023-01-17T08:44:46.522Z,15.13
2023-01-17T08:47:17.718Z,15.68
2023-01-17T08:49:48.512Z,18.65
2023-01-17T08:52:23.538Z,19.70
2023-01-17T08:55:00.445Z,18.80
2023-01-17T08:57:36.266Z,17.60
2023-01-17T09:00:15.385Z,22.48
2023-01-17T09:02:55.525Z,18.23
2023-01-17T09:05:27.106Z,20.13
2023-01-17T09:08:00.895Z,17.30
2023-01-17T09:10:30.787Z,20.02
2023-01-17T09:13:00.935Z,27.77
2023-01-17T09:15:32.467Z,26.40
2023-01-17T09:18:02.170Z,22.13
2023-01-17T09:20:31.512Z,20.27
2023-01-17T09:23:04.921Z,24.25
2023-01-17T09:25:33.438Z,24.20
2023-01-17T09:28:02.691Z,18.92
2023-01-17T09:30:30.621Z,27.67
2023-01-17T09:32:59.459Z,22.52
2023-01-17T09:35:29.520Z,19.75
2023-01-17T09:37:59.815Z,19.98
2023-01-17T09:40:29.577Z,18.85
2023-01-17T09:43:07.269Z,20.55
2023-01-17T09:45:39.320Z,22.80
2023-01-17T09:51:24.884Z,20.33
2023-01-17T09:54:08.700Z,15.15
2023-01-17T09:57:03.448Z,20.35
2023-01-17T10:00:06.022Z,14.90
2023-01-17T10:03:04.224Z,19.10
2023-01-17T10:05:47.369Z,17.27
2023-01-17T10:08:51.017Z,15.65
2023-01-17T10:12:01.721Z,14.40
2023-01-17T10:14:34.818Z,11.15
2023-01-17T10:17:43.290Z,20.95
2023-01-17T10:20:39.476Z,17.42
2023-01-17T10:23:38.441Z,14.27
2023-01-17T10:26:15.860Z,13.13
2023-01-17T10:28:51.505Z,14.75
2023-01-17T10:31:27.097Z,15.77
2023-01-17T10:34:09.842Z,14.98
2023-01-17T10:36:45.334Z,15.90
2023-01-17T10:39:23.387Z,17.45
2023-01-17T10:42:06.625Z,10.95
2023-01-17T10:45:29.356Z,16.75
2023-01-17T10:48:27.729Z,15.43
2023-01-17T10:51:28.903Z,16.10
2023-01-17T10:54:46.591Z,21.30
2023-01-17T10:57:22.716Z,18.90
2023-01-17T10:59:52.671Z,18.00
2023-01-17T11:02:34.374Z,29.83
2023-01-17T11:05:22.870Z,16.23
2023-01-17T11:08:08.983Z,11.77
2023-01-17T11:10:50.026Z,17.98
2023-01-17T11:13:38.987Z,20.17
2023-01-17T11:16:21.435Z,17.15
2023-01-17T11:19:30.561Z,19.65
2023-01-17T11:22:04.726Z,13.60
2023-01-17T11:24:51.585Z,18.00
2023-01-17T11:27:42.147Z,17.52
2023-01-17T11:30:19.962Z,18.20
2023-01-17T11:33:33.269Z,18.27
2023-01-17T11:36:08.693Z,23.02
2023-01-17T11:38:39.242Z,47.40
2023-01-17T11:41:38.913Z,16.00
2023-01-17T11:44:32.392Z,15.02
2023-01-17T11:47:21.511Z,12.35
2023-01-17T11:49:50.287Z,14.07
2023-01-17T11:52:33.733Z,18.73
2023-01-17T11:55:01.585Z,14.88
2023-01-17T11:57:36.144Z,21.65
2023-01-17T12:00:32.171Z,17.33
2023-01-17T12:03:25.427Z,14.57
2023-01-17T12:06:28.095Z,11.98
2023-01-17T12:09:12.266Z,10.82
2023-01-17T12:16:29.313Z,13.05
2023-01-17T12:19:25.841Z,11.88
2023-01-17T12:21:52.864Z,14.85
2023-01-17T12:24:57.554Z,18.35
2023-01-17T12:27:43.621Z,11.50
2023-01-17T12:30:41.171Z,12.50
2023-01-17T12:33:43.828Z,13.88
2023-01-17T12:36:52.223Z,7.95
2023-01-17T12:39:28.281Z,12.48
2023-01-17T12:42:13.751Z,12.73
2023-01-17T12:47:23.354Z,12.70
2023-01-17T12:50:06.461Z,11.57
2023-01-17T12:53:12.281Z,11.10
2023-01-17T12:56:11.097Z,8.00
2023-01-17T12:59:20.696Z,13.10
2023-01-17T13:02:00.575Z,9.15
2023-01-17T13:04:57.430Z,9.38
2023-01-17T13:07:46.181Z,10.07
2023-01-17T13:10:41.809Z,14.45
2023-01-17T13:13:37.145Z,12.60
2023-01-17T13:16:33.105Z,8.55
2023-01-17T13:19:24.160Z,12.38
2023-01-17T13:21:58.202Z,9.13
2023-01-17T13:24:36.300Z,10.20
2023-01-17T13:27:38.675Z,11.05
2023-01-17T13:30:31.534Z,12.07
2023-01-17T13:33:43.346Z,15.38
2023-01-17T13:36:46.833Z,10.80
2023-01-17T13:39:32.623Z,9.68
2023-01-17T13:42:50.473Z,9.57
2023-01-17T13:45:29.372Z,13.05
2023-01-17T13:48:21.001Z,10.00
2023-01-17T13:51:11.806Z,8.63
2023-01-17T13:53:42.468Z,11.05
2023-01-17T13:56:20.895Z,12.93
2023-01-17T13:58:53.460Z,16.42
2023-01-17T14:01:47.620Z,8.95
2023-01-17T14:04:25.782Z,10.80
2023-01-17T14:06:59.995Z,8.55
2023-01-17T14:09:42.642Z,11.70
2023-01-17T14:12:28.692Z,7.38
2023-01-17T14:18:03.836Z,9.32
2023-01-17T14:20:49.980Z,12.63
2023-01-17T14:23:31.894Z,9.23
2023-01-17T14:26:17.801Z,8.27
2023-01-17T14:28:44.864Z,15.20
2023-01-17T14:31:14.004Z,8.30
2023-01-17T14:33:42.135Z,8.73
2023-01-17T14:36:23.471Z,13.60
2023-01-17T14:38:51.165Z,12.63
2023-01-17T14:41:24.641Z,11.68
2023-01-17T14:43:52.526Z,9.20
2023-01-17T14:46:32.302Z,11.57
2023-01-17T14:49:23.998Z,10.88
2023-01-17T14:52:06.210Z,12.93
2023-01-17T14:54:33.553Z,10.88
2023-01-17T14:57:35.685Z,9.45
2023-01-17T15:00:19.770Z,8.77
2023-01-17T15:02:48.996Z,9.25
2023-01-17T15:05:20.852Z,10.63
2023-01-17T15:07:56.163Z,10.27
2023-01-17T15:10:31.587Z,12.55
2023-01-17T15:13:09.009Z,10.93
2023-01-17T15:15:39.638Z,9.05
2023-01-17T15:18:25.970Z,7.78
2023-01-17T15:21:01.837Z,9.38
2023-01-17T15:23:36.854Z,9.95
2023-01-17T15:28:34.997Z,12.55
2023-01-17T15:31:09.770Z,14.40
2023-01-17T15:33:41.288Z,14.98
2023-01-17T15:36:20.810Z,10.65
2023-01-17T15:39:00.321Z,8.80
2023-01-17T15:41:35.840Z,10.05
2023-01-17T15:44:04.602Z,14.70
2023-01-17T15:46:44.620Z,10.43
2023-01-17T15:49:24.935Z,13.82
2023-01-17T15:52:06.421Z,13.35
2023-01-17T15:54:56.473Z,12.50
2023-01-17T15:57:35.838Z,10.38
2023-01-17T16:00:28.736Z,8.85
2023-01-17T16:03:43.960Z,12.07
2023-01-17T16:06:59.820Z,14.13
2023-01-17T16:09:46.119Z,8.10
2023-01-17T16:12:29.564Z,15.43
2023-01-17T16:15:12.910Z,12.95
2023-01-17T16:17:54.332Z,17.83
2023-01-17T16:20:38.060Z,16.13
2023-01-17T16:23:26.568Z,18.20
2023-01-17T16:25:57.065Z,12.38
2023-01-17T16:28:29.134Z,18.65
2023-01-17T16:31:13.563Z,17.58
2023-01-17T16:33:58.153Z,13.45
2023-01-17T16:36:26.348Z,16.42
2023-01-17T16:38:53.966Z,17.13
2023-01-17T16:41:21.571Z,17.30
2023-01-17T16:43:59.128Z,22.33
2023-01-17T16:46:26.699Z,16.30
2023-01-17T16:48:53.881Z,16.80
2023-01-17T16:51:20.988Z,14.70
2023-01-17T16:53:48.348Z,24.08
2023-01-17T16:56:18.046Z,16.45
2023-01-17T16:58:45.203Z,17.50
2023-01-17T17:01:15.945Z,40.22
2023-01-17T17:03:44.351Z,21.85
2023-01-17T17:06:12.904Z,21.25
2023-01-17T17:08:40.097Z,19.98
2023-01-17T17:11:27.523Z,20.02
2023-01-17T17:13:54.636Z,21.55
2023-01-17T17:16:26.614Z,18.45
2023-01-17T17:19:06.156Z,13.95
2023-01-17T17:21:36.780Z,19.13
2023-01-17T17:24:04.584Z,16.55
2023-01-17T17:26:35.375Z,17.08
2023-01-17T17:29:05.020Z,16.25
2023-01-17T17:31:33.269Z,15.32
2023-01-17T17:34:02.707Z,17.80
2023-01-17T17:36:30.878Z,17.55
2023-01-17T17:38:59.133Z,16.35
2023-01-17T17:41:30.818Z,19.83
2023-01-17T17:44:01.346Z,18.58
2023-01-17T17:46:30.299Z,20.83
2023-01-17T17:48:58.894Z,23.95
2023-01-17T17:51:29.352Z,19.77
2023-01-17T17:54:04.153Z,19.83
2023-01-17T17:56:33.795Z,22.23
2023-01-17T17:59:02.875Z,21.70
2023-01-17T18:01:30.649Z,26.27
2023-01-17T18:04:02.905Z,19.98
2023-01-17T18:06:30.823Z,22.98
2023-01-17T18:08:57.993Z,21.58
2023-01-17T18:11:27.940Z,25.60
2023-01-17T18:13:58.842Z,25.15
2023-01-17T18:16:39.463Z,26.58
2023-01-17T18:19:16.048Z,27.27
2023-01-17T18:21:44.332Z,32.38
2023-01-17T18:24:16.477Z,33.47
2023-01-17T18:26:53.457Z,30.42
2023-01-17T18:29:34.509Z,37.42
2023-01-17T18:32:03.098Z,30.17
2023-01-17T18:34:30.280Z,36.78
2023-01-17T18:36:58.313Z,36.17
2023-01-17T18:39:28.833Z,36.47
2023-01-17T18:41:56.320Z,36.35
2023-01-17T18:44:24.276Z,33.10
2023-01-17T18:46:54.825Z,34.72
2023-01-17T18:49:22.253Z,37.53
2023-01-17T18:51:51.289Z,36.08
2023-01-17T18:54:20.388Z,45.70
2023-01-17T18:56:52.333Z,37.70
2023-01-17T18:59:20.283Z,35.05
2023-01-17T19:01:47.490Z,40.55
2023-01-17T19:04:17.307Z,37.42
2023-01-17T19:06:47.909Z,41.95
2023-01-17T19:09:16.975Z,40.60
2023-01-17T19:11:47.358Z,48.65
2023-01-17T19:14:15.707Z,48.47
2023-01-17T19:16:43.124Z,42.35
2023-01-17T19:19:15.683Z,41.80
2023-01-17T19:21:43.091Z,45.63
2023-01-17T19:24:13.173Z,34.50
2023-01-17T19:26:41.691Z,34.28
2023-01-17T19:29:09.254Z,41.95
2023-01-17T19:31:42.397Z,34.22
2023-01-17T19:34:10.427Z,40.83
2023-01-17T19:36:39.322Z,42.00
2023-01-17T19:39:12.182Z,39.15
2023-01-17T19:41:45.336Z,45.13
2023-01-17T19:44:14.376Z,34.42
2023-01-17T19:46:41.950Z,39.88
2023-01-17T19:49:10.474Z,41.47
2023-01-17T19:51:39.427Z,45.08
2023-01-17T19:54:08.472Z,43.42
2023-01-17T19:56:35.801Z,50.67
2023-01-17T19:59:03.114Z,53.58
2023-01-17T20:01:34.035Z,52.95
2023-01-17T20:04:03.793Z,53.22
2023-01-17T20:06:35.864Z,49.10
2023-01-17T20:09:05.156Z,50.30
2023-01-17T20:11:32.585Z,51.45
2023-01-17T20:14:00.418Z,50.92
2023-01-17T20:16:31.633Z,55.53
2023-01-17T20:19:02.895Z,50.38
2023-01-17T20:21:31.943Z,54.05
2023-01-17T20:24:04.550Z,51.78
2023-01-17T20:26:35.312Z,49.42
2023-01-17T20:29:11.738Z,48.33
2023-01-17T20:31:46.385Z,44.08
2023-01-17T20:34:18.632Z,40.97
2023-01-17T20:36:46.273Z,40.17
2023-01-17T20:39:15.077Z,35.03
2023-01-17T20:41:43.748Z,37.67
2023-01-17T20:44:15.382Z,35.20
2023-01-17T20:46:43.182Z,36.50
2023-01-17T20:49:15.735Z,37.97
2023-01-17T20:51:44.519Z,34.97
2023-01-17T20:54:18.829Z,40.58
2023-01-17T20:56:47.871Z,40.95
2023-01-17T20:59:19.102Z,47.83
2023-01-17T21:01:46.934Z,45.58
2023-01-17T21:04:14.772Z,52.33
2023-01-17T21:06:43.515Z,47.25
2023-01-17T21:09:14.931Z,55.03
2023-01-17T21:11:42.034Z,58.03
2023-01-17T21:14:09.411Z,44.42
2023-01-17T21:16:36.890Z,43.95
2023-01-17T21:19:04.923Z,45.47
2023-01-17T21:21:32.368Z,53.20
2023-01-17T21:24:00.598Z,50.75
2023-01-17T21:26:28.777Z,47.83
2023-01-17T21:29:07.367Z,61.72
2023-01-17T21:31:36.567Z,53.00
2023-01-17T21:34:07.606Z,57.63
2023-01-17T21:36:40.573Z,55.28
2023-01-17T21:39:15.638Z,52.15
2023-01-17T21:41:47.878Z,54.58
2023-01-17T21:44:21.508Z,53.65
2023-01-17T21:46:54.238Z,50.03
2023-01-17T21:49:22.496Z,57.08
2023-01-17T21:51:55.163Z,61.78
2023-01-17T21:54:46.867Z,58.92
2023-01-17T21:57:38.325Z,53.83
2023-01-17T22:00:09.638Z,50.17
2023-01-17T22:02:40.117Z,67.97
2023-01-17T22:05:08.852Z,57.92
2023-01-17T22:07:36.260Z,60.15
2023-01-17T22:10:03.633Z,65.68
2023-01-17T22:12:30.590Z,61.25
2023-01-17T22:14:57.638Z,63.42
2023-01-17T22:17:24.591Z,59.90
2023-01-17T22:19:52.988Z,67.45
2023-01-17T22:22:20.041Z,68.40
2023-01-17T22:24:47.257Z,56.83
2023-01-17T22:27:14.204Z,55.92
2023-01-17T22:29:41.766Z,58.17
2023-01-17T22:32:08.806Z,53.65
2023-01-17T22:34:35.687Z,46.35
2023-01-17T22:37:04.581Z,43.80
2023-01-17T22:39:31.606Z,41.08
2023-01-17T22:41:58.687Z,36.63
2023-01-17T22:44:25.843Z,43.35
2023-01-17T22:46:53.470Z,38.53
2023-01-17T22:49:23.390Z,37.13
2023-01-17T22:51:51.264Z,37.45
2023-01-17T22:54:19.269Z,34.80
2023-01-17T22:56:46.347Z,37.75
2023-01-17T22:59:13.732Z,35.20
2023-01-17T23:01:41.308Z,34.25
2023-01-17T23:04:14.382Z,38.05
2023-01-17T23:06:42.083Z,39.35
2023-01-17T23:09:13.766Z,36.03
2023-01-17T23:11:47.205Z,34.22
2023-01-17T23:14:29.984Z,34.08
2023-01-17T23:17:21.573Z,30.23
2023-01-17T23:19:54.528Z,26.48
2023-01-17T23:22:23.776Z,26.13
2023-01-17T23:24:57.209Z,28.73
2023-01-17T23:27:46.504Z,34.03
2023-01-17T23:30:25.091Z,28.33
2023-01-17T23:32:55.786Z,26.30
2023-01-17T23:35:28.327Z,29.23
2023-01-17T23:38:14.888Z,28.38
2023-01-17T23:40:43.401Z,30.88
2023-01-17T23:43:23.160Z,29.55
2023-01-17T23:45:54.634Z,27.63
2023-01-17T23:48:25.326Z,32.35
2023-01-17T23:51:00.277Z,36.40
2023-01-17T23:53:27.662Z,26.27
2023-01-17T23:55:56.965Z,30.25
2023-01-17T23:58:27.692Z,38.35
